createdAt,value
2023-03-01T00:00:20.416Z,-5.72
2023-03-01T00:02:49.998Z,-5.58
2023-03-01T00:05:19.585Z,-5.59
2023-03-01T00:07:49.092Z,-5.70
2023-03-01T00:10:19.262Z,-5.77
2023-03-01T00:12:48.831Z,-5.78
2023-03-01T00:15:18.611Z,-5.83
2023-03-01T00:17:48.136Z,-5.83
2023-03-01T00:20:18.119Z,-5.88
2023-03-01T00:22:47.881Z,-5.91
2023-03-01T00:25:17.847Z,-5.97
2023-03-01T00:27:49.968Z,-5.99
2023-03-01T00:30:19.684Z,-6.00
2023-03-01T00:32:49.185Z,-5.80
2023-03-01T00:35:19.091Z,-5.83
2023-03-01T00:37:48.678Z,-6.01
2023-03-01T00:40:18.577Z,-5.84
2023-03-01T00:42:48.430Z,-6.04
2023-03-01T00:45:19.074Z,-5.90
2023-03-01T00:47:48.843Z,-6.04
2023-03-01T00:50:19.509Z,-6.11
2023-03-01T00:52:50.988Z,-6.42
2023-03-01T00:55:20.741Z,-6.48
2023-03-01T00:57:50.513Z,-6.34
2023-03-01T01:00:21.647Z,-6.29
2023-03-01T01:02:50.422Z,-6.36
2023-03-01T01:05:21.564Z,-6.39
2023-03-01T01:07:51.294Z,-6.22
2023-03-01T01:10:21.127Z,-6.25
2023-03-01T01:12:50.726Z,-6.28
2023-03-01T01:15:20.558Z,-6.32
2023-03-01T01:17:50.424Z,-6.32
2023-03-01T01:20:20.319Z,-6.36
2023-03-01T01:22:50.166Z,-6.36
2023-03-01T01:25:20.270Z,-6.45
2023-03-01T01:27:49.752Z,-6.18
2023-03-01T01:30:19.760Z,-6.17
2023-03-01T01:32:49.255Z,-6.25
2023-03-01T01:35:19.202Z,-6.36
2023-03-01T01:37:48.703Z,-6.38
2023-03-01T01:40:18.844Z,-6.41
2023-03-01T01:42:48.490Z,-6.48
2023-03-01T01:45:36.018Z,-6.51
2023-03-01T01:48:09.599Z,-6.55
2023-03-01T01:50:42.244Z,-6.63
2023-03-01T01:53:17.860Z,-6.62
2023-03-01T01:55:53.598Z,-6.63
2023-03-01T01:58:24.131Z,-6.59
2023-03-01T02:00:52.909Z,-6.33
2023-03-01T02:03:33.126Z,-6.43
2023-03-01T02:06:08.463Z,-6.58
2023-03-01T02:08:42.231Z,-6.64
2023-03-01T02:11:15.642Z,-6.82
2023-03-01T02:13:45.888Z,-6.82
2023-03-01T02:16:17.595Z,-6.86
2023-03-01T02:18:48.365Z,-6.87
2023-03-01T02:21:30.531Z,-6.89
2023-03-01T02:24:03.433Z,-6.92
2023-03-01T02:26:44.905Z,-7.08
2023-03-01T02:29:14.539Z,-7.02
2023-03-01T02:31:44.265Z,-7.02
